Aeroporto :
LOGIN :

Iscrizione | Disclaimer

   EN    FR    IT 

 










Sommario :    VFR   VFR Marginale   IFR   IFR Intensivo   IFR Molto Intensivo
Visibilità : 
Base nubi : 
>= 8 km
>= 3000ft
5 / 8 km
1000 / 3000 ft
1500m / 5 km
500 / 1000 ft
800 / 1500m
200 / 500 ft
< 800m
< 200 ft
Simboli :   Temporali  Nebbia  Neve Forte  Precipitazioni Forti  Vento > 20 kt
SIGMETs :   Varie  Temporali  Ghiacco  Turbolenza  Onda orograficha  Ceneri Vulcaniche






- Altitudine del aeroporto : 357 ft
- Codice IATA : TUF


LFOT - Tours

ULTIMO METAR :
  • 181400Z AUTO 10007KT 050V150 CAVOK 31/15 Q1013 NOSIG

METARs OBSOLETI :
  • 181330Z AUTO 12009KT 090V150 CAVOK 29/14 Q1013 NOSIG
  • 181300Z AUTO 09012KT 060V130 CAVOK 29/14 Q1013 NOSIG
  • 181230Z AUTO 07012KT 040V110 CAVOK 29/14 Q1013 NOSIG
  • 181200Z AUTO 08012KT 030V100 CAVOK 28/14 Q1013 NOSIG
  • 181130Z AUTO 06011KT CAVOK 27/14 Q1013 NOSIG

TAF TAF LFOT
Valido dal 18 a 12 ore il 19 a 12 ore UTC


181100Z 1812/1912 10010KT CAVOK
TEMPO 1901/1904 15008KT 6000 -SHRA SCT040CB BKN100
PROB30
TEMPO 1902/1904 24015G25KT 2500 -TSRA BKN050CB
PROB30
TEMPO 1904/1907 BKN012



MetMap, La meteo Aeronautica in un colpo d'occhio ! - Copyright ORBIFLY Dicembre 2007 - Disclaimer

ORBIFLY MET'MAP TEAM :

Programmazione e sviluppo : Alexandra Zaïnal
Concezione : Baudouin d'Aumeries
Aiuto per la programmazione : Marc-Olivier Méhu
Supporto tecnico e logistico : Manuel Goepfert
Aiuto per la traduzione : Arnaldo La Scala

Contatto : metmap@orbifly.com




FONTI E CREDITI :

   NOAA